Latest Weather Observations for Townsville

IDQ60801

Issued at 11:05 pm EST Sunday 20 April 2014 (issued every 30 minutes, with the page automatically refreshed every 10 minutes)

About weather observations | Map of weather stations | Latest weather observations for QLD | Other Formats
Station Details ID: 032040 Name: TOWNSVILLE AERO Lat: -19.25 Lon: 146.77 Height: 4.34 m
Data from the previous 72 hours. | See also: Recent months at Townsville
Date/Time
EST
Temp
°C
App
Temp
°C
Dew
Point
Rel
Hum
%
Delta-T
°C
Wind Press
QNH
hPa
Press
MSL
hPa
Rain
since 9 am
mm
Dir
 
Spd
km/h
Gust
km/h
Spd
kts
Gust
kts
20/11:00pm 22.9 23.6 17.9 73 3.1 SSE 11 11 6 6 1016.6 - 0.0
20/10:30pm 22.5 23.3 18.2 76 2.7 SE 11 13 6 7 1016.7 - 0.0
20/10:00pm 22.7 23.7 17.7 73 3.1 SE 9 11 5 6 1016.6 - 0.0
20/09:30pm 23.4 23.8 17.3 68 3.8 SE 11 11 6 6 1016.8 - 0.0
20/09:00pm 23.3 24.3 17.8 71 3.4 ESE 9 13 5 7 1016.8 1016.7 0.0
20/08:30pm 23.6 24.2 17.8 70 3.6 SE 11 13 6 7 1016.6 - 0.0
20/08:00pm 23.5 24.7 18.2 72 3.3 SE 9 13 5 7 1016.3 - 0.0
20/07:30pm 23.8 24.3 18.4 72 3.4 SE 13 15 7 8 1016.0 - 0.0
20/07:00pm 24.5 24.5 17.2 63 4.5 ESE 13 15 7 8 1015.7 - 0.0
20/06:30pm 23.9 25.0 18.0 69 3.7 E 9 11 5 6 1015.3 - 0.0
20/06:00pm 24.7 25.0 18.0 66 4.2 E 13 19 7 10 1015.1 1015.0 0.0
20/05:30pm 26.1 25.0 17.8 60 5.2 ENE 20 28 11 15 1014.9 - 0.0
20/05:00pm 26.7 25.4 18.2 59 5.4 ENE 22 28 12 15 1014.5 - 0.0
20/04:30pm 27.2 25.5 17.3 54 6.2 ENE 22 30 12 16 1014.1 - 0.0
20/04:00pm 27.4 25.2 16.8 52 6.6 ENE 24 30 13 16 1013.9 - 0.0
20/03:30pm 27.9 26.2 18.0 55 6.3 ENE 24 30 13 16 1013.7 - 0.0
20/03:00pm 28.2 26.6 17.4 52 6.8 ENE 22 32 12 17 1013.6 1013.5 0.0
20/02:30pm 28.0 26.3 17.2 52 6.8 ENE 22 30 12 16 1013.6 - 0.0
20/02:00pm 28.3 26.5 17.0 50 7.1 ENE 22 30 12 16 1013.9 - 0.0
20/01:30pm 28.4 27.3 17.7 52 6.8 ENE 20 30 11 16 1014.0 - 0.0
20/01:00pm 28.0 26.8 17.0 51 6.9 NE 19 28 10 15 1014.4 - 0.0
20/12:30pm 28.1 26.6 16.7 50 7.1 NE 20 28 11 15 1014.9 - 0.0
20/12:00pm 27.8 26.5 16.9 51 6.8 NE 19 28 10 15 1015.4 1015.3 0.0
20/11:30am 28.1 26.8 16.9 50 7.0 E 19 26 10 14 1015.8 - 0.0
20/11:00am 27.9 27.1 17.0 51 6.8 ESE 17 24 9 13 1016.1 - 0.0
20/10:30am 27.3 26.5 17.1 53 6.4 E 17 22 9 12 1016.2 - 0.0
20/10:00am 27.2 27.2 17.3 54 6.2 E 13 20 7 11 1016.4 - 0.0
20/09:30am 26.7 27.0 18.0 59 5.5 SE 13 19 7 10 1016.4 - 0.0
20/09:00am 26.3 26.1 17.5 58 5.5 SE 15 19 8 10 1016.2 1016.1 0.0
20/08:30am 25.1 25.3 17.6 63 4.7 SSE 13 15 7 8 1016.0 - 0.0
20/08:00am 24.0 25.1 17.9 68 3.8 SSE 9 11 5 6 1015.8 - 0.0
20/07:30am 22.4 23.9 18.8 80 2.3 S 9 11 5 6 1015.5 - 0.0
20/07:00am 21.4 22.9 18.9 86 1.6 S 9 9 5 5 1015.1 - 0.0
20/06:30am 20.9 21.8 18.3 85 1.6 S 11 11 6 6 1014.8 - 0.0
20/06:00am 21.1 24.1 19.2 89 1.2 SE 2 7 1 4 1014.5 1014.4 0.0
20/05:30am 21.4 22.9 19.0 86 1.5 SE 9 11 5 6 1014.2 - 0.0
20/05:00am 21.4 22.2 18.2 82 2.0 SE 11 13 6 7 1014.0 - 0.0
20/04:30am 22.0 22.6 17.6 76 2.7 SE 11 13 6 7 1013.9 - 0.0
20/04:00am 22.0 22.3 18.0 78 2.5 SE 13 13 7 7 1013.7 - 0.0
20/03:30am 22.0 22.8 18.2 79 2.4 SE 11 13 6 7 1013.8 - 0.0
20/03:00am 22.0 23.2 18.3 79 2.3 SE 9 11 5 6 1013.9 1013.8 0.0
20/02:30am 22.4 23.3 18.4 78 2.5 SE 11 13 6 7 1014.0 - 0.0
20/02:00am 22.4 23.4 18.6 79 2.4 SE 11 13 6 7 1014.1 - 0.0
20/01:30am 22.5 23.9 18.7 79 2.4 SE 9 11 5 6 1014.2 - 0.0
20/01:00am 23.1 24.7 19.2 79 2.5 SE 9 11 5 6 1014.6 - 0.0
20/12:30am 22.9 24.6 19.3 80 2.3 SE 9 11 5 6 1014.9 - 0.0
20/12:00am 23.5 25.1 19.1 76 2.8 SE 9 11 5 6 1015.0 1014.9 0.0
 
Date/Time
EST
Temp
°C
App
Temp
°C
Dew
Point
Rel
Hum
%
Delta-T
°C
Wind Press
QNH
hPa
Press
MSL
hPa
Rain
since 9 am
mm
Dir
 
Spd
km/h
Gust
km/h
Spd
kts
Gust
kts
19/11:30pm 23.4 25.2 19.5 79 2.5 SE 9 11 5 6 1015.2 - 0.0
19/11:00pm 23.3 24.9 19.1 77 2.7 SE 9 11 5 6 1015.3 - 0.0
19/10:30pm 23.8 25.9 19.3 76 2.9 ESE 7 11 4 6 1015.4 - 0.0
19/10:00pm 23.7 25.5 19.5 77 2.7 SE 9 11 5 6 1015.5 - 0.0
19/09:30pm 24.1 26.1 19.2 74 3.1 SE 7 9 4 5 1015.6 - 0.0
19/09:00pm 24.0 25.5 19.0 73 3.2 E 9 11 5 6 1015.5 1015.4 0.0
19/08:30pm 24.3 25.6 18.4 69 3.7 ENE 9 11 5 6 1015.3 - 0.0
19/08:00pm 24.3 25.3 18.6 70 3.6 E 11 13 6 7 1015.0 - 0.0
19/07:30pm 24.6 25.1 18.3 68 4.0 E 13 15 7 8 1014.7 - 0.0
19/07:00pm 25.2 25.2 17.3 61 4.9 ENE 13 17 7 9 1014.4 - 0.0
19/06:30pm 25.3 25.6 18.0 64 4.6 ENE 13 17 7 9 1014.2 - 0.0
19/06:00pm 25.4 25.6 18.5 65 4.4 ENE 15 17 8 9 1013.9 1013.8 0.0
19/05:30pm 26.2 26.4 18.5 62 4.9 ENE 15 19 8 10 1013.7 - 0.0
19/05:00pm 26.5 25.8 18.3 60 5.2 NE 19 24 10 13 1013.5 - 0.0
19/04:30pm 26.7 25.9 18.5 60 5.2 NE 20 26 11 14 1013.4 - 0.0
19/04:00pm 27.1 26.3 18.5 59 5.5 ENE 20 26 11 14 1013.3 - 0.0
19/03:30pm 28.2 27.4 19.2 58 5.8 ENE 22 32 12 17 1013.3 - 0.0
19/03:00pm 27.9 27.3 18.9 58 5.8 NE 20 26 11 14 1013.4 1013.3 0.0
19/02:30pm 28.3 27.8 19.9 60 5.5 NE 22 30 12 16 1013.6 - 0.0
19/02:00pm 28.5 28.6 19.9 59 5.6 NE 19 28 10 15 1014.0 - 0.0
19/01:30pm 28.1 27.7 18.9 57 5.9 NE 19 28 10 15 1014.2 - 0.0
19/01:00pm 28.3 28.0 19.5 59 5.7 ENE 20 28 11 15 1014.5 - 0.0
19/12:30pm 28.7 28.7 19.7 58 5.9 ENE 19 26 10 14 1014.9 - 0.0
19/12:00pm 28.3 28.3 19.7 59 5.6 ENE 19 30 10 16 1015.3 1015.2 0.0
19/11:30am 28.4 27.8 18.9 56 6.1 ENE 20 28 11 15 1015.8 - 0.0
19/11:00am 28.3 27.9 19.4 58 5.8 ENE 20 30 11 16 1016.2 - 0.0
19/10:30am 27.5 27.4 20.0 63 4.9 ENE 20 32 11 17 1016.5 - 0.0
19/10:00am 28.0 27.6 19.4 59 5.6 ENE 20 28 11 15 1016.6 - 0.0
19/09:30am 27.9 27.9 20.1 62 5.1 ENE 20 26 11 14 1016.6 - 0.0
19/09:00am 27.3 28.4 19.6 62 5.0 ESE 13 19 7 10 1016.4 1016.3 0.0
19/08:30am 26.2 28.0 21.1 73 3.4 SE 13 15 7 8 1016.4 - 0.0
19/08:00am 25.5 27.9 20.8 75 3.1 ESE 9 13 5 7 1016.1 - 0.0
19/07:30am 25.6 26.3 19.6 69 3.9 ENE 15 22 8 12 1015.8 - 0.0
19/07:00am 23.6 25.6 20.8 84 1.8 S 11 15 6 8 1015.7 - 0.0
19/06:30am 23.0 25.3 20.7 87 1.5 S 9 11 5 6 1015.4 - 0.0
19/06:00am 23.5 26.7 20.4 83 2.0 SSE 4 9 2 5 1015.0 1014.9 0.0
19/05:30am 23.1 26.7 20.6 86 1.6 SE 2 6 1 3 1014.7 - 0.0
19/05:00am 23.3 26.2 21.0 87 1.5 S 7 9 4 5 1014.6 - 0.0
19/04:30am 23.6 26.4 20.5 83 2.0 SSW 6 9 3 5 1014.4 - 0.0
19/04:00am 23.8 27.1 20.7 83 2.0 S 4 7 2 4 1014.2 - 0.0
19/03:30am 23.8 27.9 20.7 83 2.0 CALM 0 0 0 0 1014.2 - 0.0
19/03:00am 23.7 26.7 20.8 84 1.9 S 6 7 3 4 1014.2 1014.1 0.0
19/02:30am 23.9 27.9 20.5 81 2.2 CALM 0 0 0 0 1014.5 - 0.0
19/02:00am 23.8 28.1 21.1 85 1.8 CALM 0 0 0 0 1014.8 - 0.0
19/01:30am 23.6 26.8 20.5 83 2.0 NNE 4 7 2 4 1015.1 - 0.0
19/01:00am 23.9 26.1 20.4 81 2.3 NNE 9 11 5 6 1015.4 - 0.0
19/12:30am 24.4 26.6 20.4 78 2.6 NNE 9 13 5 7 1015.7 - 0.0
19/12:00am 24.4 26.7 20.6 79 2.5 N 9 11 5 6 1015.9 1015.8 0.0
 
Date/Time
EST
Temp
°C
App
Temp
°C
Dew
Point
Rel
Hum
%
Delta-T
°C
Wind Press
QNH
hPa
Press
MSL
hPa
Rain
since 9 am
mm
Dir
 
Spd
km/h
Gust
km/h
Spd
kts
Gust
kts
18/11:30pm 24.8 27.0 20.3 76 2.9 N 9 11 5 6 1016.0 - 0.0
18/11:00pm 24.1 26.4 20.6 81 2.3 NE 9 13 5 7 1016.2 - 0.0
18/10:30pm 24.4 26.1 20.9 81 2.3 NE 13 15 7 8 1016.2 - 0.0
18/10:00pm 24.9 26.5 20.8 78 2.7 NNE 13 15 7 8 1016.4 - 0.0
18/09:30pm 25.1 26.5 20.3 74 3.1 NE 13 19 7 10 1016.3 - 0.0
18/09:00pm 25.3 27.0 20.2 73 3.3 ENE 11 15 6 8 1016.4 1016.3 0.0
18/08:30pm 24.7 27.0 21.4 82 2.2 NE 11 13 6 7 1016.1 - 0.0
18/08:00pm 24.9 27.3 20.8 78 2.7 NNE 9 13 5 7 1015.7 - 0.0
18/07:30pm 24.8 26.9 21.0 79 2.5 NE 11 13 6 7 1015.4 - 0.0
18/07:00pm 25.1 26.7 20.0 73 3.3 ENE 11 15 6 8 1015.0 - 0.0
18/06:30pm 25.5 26.4 19.3 68 4.0 ENE 13 17 7 9 1014.4 - 0.0
18/06:00pm 25.6 26.6 20.2 72 3.5 ENE 15 19 8 10 1014.3 1014.2 0.0
18/05:30pm 26.2 26.5 20.4 70 3.8 ENE 19 26 10 14 1014.0 - 0.0
18/05:00pm 27.3 27.8 20.8 67 4.3 NE 19 28 10 15 1013.8 - 0.0
18/04:30pm 27.8 27.9 21.2 67 4.4 NE 22 28 12 15 1013.7 - 0.0
18/04:00pm 27.8 27.8 20.2 63 5.0 ENE 20 30 11 16 1013.4 - 0.0
18/03:30pm 27.8 28.1 20.7 65 4.7 ENE 20 28 11 15 1013.2 - 0.0
18/03:00pm 28.1 28.0 21.5 67 4.4 NE 24 30 13 16 1013.2 1013.1 0.0
18/02:30pm 28.5 28.3 21.3 65 4.8 ENE 24 30 13 16 1013.3 - 0.0
18/02:00pm 28.4 27.7 20.2 61 5.4 ENE 24 28 13 15 1013.5 - 0.0
18/01:30pm 28.4 28.0 20.9 64 5.0 ENE 24 30 13 16 1013.7 - 0.0
18/01:00pm 28.6 28.3 20.4 61 5.4 ENE 22 32 12 17 1014.0 - 0.0
18/12:30pm 28.6 28.5 21.4 65 4.8 ENE 24 32 13 17 1014.3 - 0.0
18/12:00pm 28.7 29.6 22.0 67 4.5 ENE 20 28 11 15 1014.6 1014.5 0.0
18/11:30am 29.0 30.1 22.0 66 4.7 ENE 19 30 10 16 1015.0 - 0.0
18/11:00am 28.0 29.3 21.7 68 4.2 ESE 17 22 9 12 1015.4 - 0.0
18/10:30am 28.2 29.2 21.0 65 4.8 E 17 22 9 12 1015.8 - 0.0
18/10:00am 27.7 29.0 20.9 66 4.5 E 15 20 8 11 1015.9 - 0.0
18/09:30am 27.4 29.2 21.1 68 4.2 ESE 13 19 7 10 1016.1 - 0.0
18/09:00am 27.0 28.9 21.3 71 3.8 ESE 13 17 7 9 1016.0 1015.9 0.0
18/08:30am 26.4 28.7 21.4 74 3.3 SSE 11 13 6 7 1015.8 - 0.0
18/08:00am 24.8 27.4 21.2 80 2.4 SSE 9 13 5 7 1015.6 - 0.0
18/07:30am 24.4 26.4 20.7 80 2.4 SSE 11 15 6 8 1015.4 - 0.0
18/07:00am 23.6 26.0 20.8 84 1.8 SE 9 13 5 7 1015.2 - 0.0
18/06:30am 22.5 25.3 20.8 90 1.1 S 7 9 4 5 1015.0 - 0.0
18/06:00am 22.7 25.0 20.7 88 1.3 SE 9 13 5 7 1014.7 1014.6 0.0
18/05:30am 23.1 24.6 20.6 86 1.6 SSE 13 15 7 8 1014.5 - 0.0
18/05:00am 23.2 25.1 20.6 85 1.7 SSE 11 11 6 6 1014.2 - 0.0
18/04:30am 23.1 25.1 20.8 87 1.5 SSE 11 11 6 6 1014.0 - 0.0
18/04:00am 23.4 25.4 20.8 85 1.7 SSE 11 13 6 7 1014.2 - 0.0
18/03:30am 23.5 25.5 20.7 84 1.8 SSE 11 13 6 7 1014.2 - 0.0
18/03:00am 23.8 26.2 20.9 84 1.9 SSE 9 11 5 6 1014.1 1014.0 0.0
18/02:30am 23.9 26.2 21.3 85 1.7 SSE 11 13 6 7 1014.4 - 0.0
18/02:00am 24.0 27.2 21.6 86 1.6 SSE 7 9 4 5 1014.7 - 0.0
18/01:30am 24.3 27.2 21.1 82 2.1 SE 7 7 4 4 1014.8 - 0.0
18/01:00am 24.6 27.6 20.9 80 2.4 E 6 9 3 5 1015.3 - 0.0
18/12:30am 24.9 27.7 20.8 78 2.7 ENE 7 11 4 6 1015.7 - 0.0
18/12:00am 25.4 27.4 20.8 75 3.0 E 11 15 6 8 1016.0 1015.9 0.0
 
Date/Time
EST
Temp
°C
App
Temp
°C
Dew
Point
Rel
Hum
%
Delta-T
°C
Wind Press
QNH
hPa
Press
MSL
hPa
Rain
since 9 am
mm
Dir
 
Spd
km/h
Gust
km/h
Spd
kts
Gust
kts
17/11:30pm 24.6 27.0 20.9 80 2.4 E 9 13 5 7 1016.2 - 0.0

Other Formats:

Comma delimited format used in spreadsheet applications
http://www.bom.gov.au/fwo/IDQ60801/IDQ60801.94294.axf

JavaScript Object Notation format (JSON) in row-major order
http://www.bom.gov.au/fwo/IDQ60801/IDQ60801.94294.json